KGWO/GWO METAR and TAF weather

Enter ICAO airport designator
Station Type Date Time Source
KGWO METAR 2019/02/17 15:53 UTC NOAA

KGWO 171553Z AUTO 33006KT 2SM BR OVC003 08/08 A2985 RMK AO2 RAB00E10B33E43 CIG 002V007 SLP108 P0000 T00830078


Station Type Date Time Source
KGWO Decoded METAR 2019/02/17 15:53 UTC NOAA

GREENWOOD-LEFLORE AIRPORT, MS, United States (KGWO) 33-30N 090-05W 44M
Feb 17, 2019 - 10:53 AM EST / 2019.02.17 1553 UTC
Wind: from the NNW (330 degrees) at 7 MPH (6 KT):0
Visibility: 2 mile(s):0
Sky conditions: overcast
Weather: mist
Precipitation last hour: A trace
Temperature: 46.9 F (8.3 C)
Dew Point: 46.0 F (7.8 C)
Relative Humidity: 96%
Pressure (altimeter): 29.85 in. Hg (1010 hPa)
ob: KGWO 171553Z AUTO 33006KT 2SM BR OVC003 08/08 A2985 RMK AO2 RAB00E10B33E43 CIG 002V007 SLP108 P0000 T00830078
cycle: 16

Station Type Date Time Source
KGWO TAF 2019/02/17 15:28 UTC NOAA

TAF
AMD KGWO 171526Z 1715/1812 21006KT 2SM -RA BR OVC004
FM171700 34007KT 4SM -RA BR OVC007
FM180000 35006KT P6SM BKN010 OVC015
FM180500 01007KT P6SM SCT030 BKN250


Example: see airport list